sensor_id;sensor_type;location;lat;lon;timestamp;P1;durP1;ratioP1;P2;durP2;ratioP2
4646;SDS011;2336;47.822;7.564;2022-09-09T00:00:12;1.63;;;1.53;;
4646;SDS011;2336;47.822;7.564;2022-09-09T00:02:40;3.23;;;1.40;;
4646;SDS011;2336;47.822;7.564;2022-09-09T00:05:13;3.80;;;1.50;;
4646;SDS011;2336;47.822;7.564;2022-09-09T00:07:47;1.73;;;1.70;;
4646;SDS011;2336;47.822;7.564;2022-09-09T00:10:20;2.17;;;1.37;;
4646;SDS011;2336;47.822;7.564;2022-09-09T00:12:57;1.37;;;1.27;;
4646;SDS011;2336;47.822;7.564;2022-09-09T00:15:33;1.63;;;1.37;;
4646;SDS011;2336;47.822;7.564;2022-09-09T00:18:09;1.90;;;1.80;;
4646;SDS011;2336;47.822;7.564;2022-09-09T00:20:42;1.90;;;1.80;;
4646;SDS011;2336;47.822;7.564;2022-09-09T00:23:17;4.20;;;1.93;;
4646;SDS011;2336;47.822;7.564;2022-09-09T00:25:52;3.60;;;1.83;;
4646;SDS011;2336;47.822;7.564;2022-09-09T00:28:27;1.60;;;1.50;;
4646;SDS011;2336;47.822;7.564;2022-09-09T00:30:57;1.57;;;1.40;;
4646;SDS011;2336;47.822;7.564;2022-09-09T00:33:27;3.07;;;1.20;;
4646;SDS011;2336;47.822;7.564;2022-09-09T00:35:57;2.20;;;1.30;;
4646;SDS011;2336;47.822;7.564;2022-09-09T00:38:27;3.77;;;2.10;;
4646;SDS011;2336;47.822;7.564;2022-09-09T00:41:00;2.20;;;1.47;;
4646;SDS011;2336;47.822;7.564;2022-09-09T00:43:32;2.10;;;1.33;;
4646;SDS011;2336;47.822;7.564;2022-09-09T00:46:05;2.27;;;1.37;;
4646;SDS011;2336;47.822;7.564;2022-09-09T00:48:50;2.90;;;1.10;;
4646;SDS011;2336;47.822;7.564;2022-09-09T00:51:26;1.27;;;1.27;;
4646;SDS011;2336;47.822;7.564;2022-09-09T00:54:05;1.27;;;1.20;;
4646;SDS011;2336;47.822;7.564;2022-09-09T00:56:48;1.97;;;0.93;;
4646;SDS011;2336;47.822;7.564;2022-09-09T00:59:24;5.80;;;1.10;;
4646;SDS011;2336;47.822;7.564;2022-09-09T01:02:01;3.90;;;1.17;;
4646;SDS011;2336;47.822;7.564;2022-09-09T01:04:29;1.77;;;1.40;;
4646;SDS011;2336;47.822;7.564;2022-09-09T01:07:02;1.40;;;1.00;;
4646;SDS011;2336;47.822;7.564;2022-09-09T01:09:37;1.30;;;1.20;;
4646;SDS011;2336;47.822;7.564;2022-09-09T01:12:14;1.30;;;1.20;;
4646;SDS011;2336;47.822;7.564;2022-09-09T01:14:45;1.20;;;1.10;;
4646;SDS011;2336;47.822;7.564;2022-09-09T01:17:15;1.90;;;1.23;;
4646;SDS011;2336;47.822;7.564;2022-09-09T01:19:49;1.00;;;1.00;;
4646;SDS011;2336;47.822;7.564;2022-09-09T01:22:26;1.27;;;1.27;;
4646;SDS011;2336;47.822;7.564;2022-09-09T01:25:11;3.43;;;1.37;;
4646;SDS011;2336;47.822;7.564;2022-09-09T01:27:50;1.23;;;1.17;;
4646;SDS011;2336;47.822;7.564;2022-09-09T01:30:18;2.20;;;1.17;;
4646;SDS011;2336;47.822;7.564;2022-09-09T01:32:47;1.80;;;1.23;;
4646;SDS011;2336;47.822;7.564;2022-09-09T01:35:18;1.47;;;1.00;;
4646;SDS011;2336;47.822;7.564;2022-09-09T01:37:55;4.07;;;1.40;;
4646;SDS011;2336;47.822;7.564;2022-09-09T01:40:22;2.50;;;1.17;;
4646;SDS011;2336;47.822;7.564;2022-09-09T01:42:51;1.07;;;0.97;;
4646;SDS011;2336;47.822;7.564;2022-09-09T01:45:19;2.60;;;1.10;;
4646;SDS011;2336;47.822;7.564;2022-09-09T01:47:47;1.27;;;1.10;;
4646;SDS011;2336;47.822;7.564;2022-09-09T01:50:15;2.73;;;1.27;;
4646;SDS011;2336;47.822;7.564;2022-09-09T01:52:42;1.30;;;1.20;;
4646;SDS011;2336;47.822;7.564;2022-09-09T01:55:12;1.53;;;1.37;;
4646;SDS011;2336;47.822;7.564;2022-09-09T01:57:39;7.20;;;1.30;;
4646;SDS011;2336;47.822;7.564;2022-09-09T02:00:15;2.30;;;1.40;;
4646;SDS011;2336;47.822;7.564;2022-09-09T02:02:44;3.47;;;1.57;;
4646;SDS011;2336;47.822;7.564;2022-09-09T02:05:25;1.40;;;1.30;;
4646;SDS011;2336;47.822;7.564;2022-09-09T02:08:03;1.67;;;1.10;;
4646;SDS011;2336;47.822;7.564;2022-09-09T02:10:32;1.27;;;1.13;;
4646;SDS011;2336;47.822;7.564;2022-09-09T02:13:07;1.73;;;1.20;;
4646;SDS011;2336;47.822;7.564;2022-09-09T02:15:40;2.57;;;1.07;;
4646;SDS011;2336;47.822;7.564;2022-09-09T02:18:13;2.50;;;1.10;;
4646;SDS011;2336;47.822;7.564;2022-09-09T02:20:45;1.37;;;1.20;;
4646;SDS011;2336;47.822;7.564;2022-09-09T02:23:13;2.20;;;1.20;;
4646;SDS011;2336;47.822;7.564;2022-09-09T02:25:41;1.00;;;1.00;;
4646;SDS011;2336;47.822;7.564;2022-09-09T02:28:09;2.83;;;1.30;;
4646;SDS011;2336;47.822;7.564;2022-09-09T02:30:39;1.93;;;1.63;;
4646;SDS011;2336;47.822;7.564;2022-09-09T02:33:07;4.10;;;1.40;;
4646;SDS011;2336;47.822;7.564;2022-09-09T02:35:37;1.13;;;1.13;;
4646;SDS011;2336;47.822;7.564;2022-09-09T02:38:07;5.43;;;1.30;;
4646;SDS011;2336;47.822;7.564;2022-09-09T02:40:36;1.87;;;1.00;;
4646;SDS011;2336;47.822;7.564;2022-09-09T02:43:03;1.10;;;1.00;;
4646;SDS011;2336;47.822;7.564;2022-09-09T02:45:31;2.10;;;0.80;;
4646;SDS011;2336;47.822;7.564;2022-09-09T02:48:07;1.40;;;1.30;;
4646;SDS011;2336;47.822;7.564;2022-09-09T02:50:41;1.10;;;0.80;;
4646;SDS011;2336;47.822;7.564;2022-09-09T02:53:14;1.63;;;1.23;;
4646;SDS011;2336;47.822;7.564;2022-09-09T02:55:45;1.30;;;1.20;;
4646;SDS011;2336;47.822;7.564;2022-09-09T02:58:14;4.17;;;1.00;;
4646;SDS011;2336;47.822;7.564;2022-09-09T03:00:43;2.83;;;0.90;;
4646;SDS011;2336;47.822;7.564;2022-09-09T03:03:13;1.00;;;0.90;;
4646;SDS011;2336;47.822;7.564;2022-09-09T03:05:41;1.00;;;1.00;;
4646;SDS011;2336;47.822;7.564;2022-09-09T03:08:07;1.73;;;1.00;;
4646;SDS011;2336;47.822;7.564;2022-09-09T03:10:34;1.00;;;1.00;;
4646;SDS011;2336;47.822;7.564;2022-09-09T03:13:02;1.73;;;1.13;;
4646;SDS011;2336;47.822;7.564;2022-09-09T03:15:29;1.17;;;1.07;;
4646;SDS011;2336;47.822;7.564;2022-09-09T03:17:56;2.40;;;1.53;;
4646;SDS011;2336;47.822;7.564;2022-09-09T03:20:24;1.87;;;1.10;;
4646;SDS011;2336;47.822;7.564;2022-09-09T03:22:52;2.20;;;1.10;;
4646;SDS011;2336;47.822;7.564;2022-09-09T03:25:19;0.80;;;0.80;;
4646;SDS011;2336;47.822;7.564;2022-09-09T03:27:48;1.63;;;1.00;;
4646;SDS011;2336;47.822;7.564;2022-09-09T03:30:18;1.13;;;0.97;;
4646;SDS011;2336;47.822;7.564;2022-09-09T03:32:45;3.60;;;1.20;;
4646;SDS011;2336;47.822;7.564;2022-09-09T03:35:11;1.27;;;0.70;;
4646;SDS011;2336;47.822;7.564;2022-09-09T03:37:39;1.13;;;1.03;;
4646;SDS011;2336;47.822;7.564;2022-09-09T03:40:07;1.63;;;1.10;;
4646;SDS011;2336;47.822;7.564;2022-09-09T03:42:34;2.10;;;1.07;;
4646;SDS011;2336;47.822;7.564;2022-09-09T03:45:02;1.43;;;1.10;;
4646;SDS011;2336;47.822;7.564;2022-09-09T03:47:29;2.00;;;0.90;;
4646;SDS011;2336;47.822;7.564;2022-09-09T03:49:55;4.20;;;1.10;;
4646;SDS011;2336;47.822;7.564;2022-09-09T03:52:22;2.20;;;1.00;;
4646;SDS011;2336;47.822;7.564;2022-09-09T03:54:52;1.70;;;0.97;;
4646;SDS011;2336;47.822;7.564;2022-09-09T03:57:21;1.27;;;1.17;;
4646;SDS011;2336;47.822;7.564;2022-09-09T03:59:48;5.13;;;1.07;;
4646;SDS011;2336;47.822;7.564;2022-09-09T04:02:15;1.60;;;0.97;;
4646;SDS011;2336;47.822;7.564;2022-09-09T04:04:41;1.70;;;1.33;;
4646;SDS011;2336;47.822;7.564;2022-09-09T04:07:08;6.70;;;1.30;;
4646;SDS011;2336;47.822;7.564;2022-09-09T04:09:36;1.63;;;0.87;;
4646;SDS011;2336;47.822;7.564;2022-09-09T04:12:05;6.00;;;1.53;;
4646;SDS011;2336;47.822;7.564;2022-09-09T04:14:32;1.37;;;1.20;;
4646;SDS011;2336;47.822;7.564;2022-09-09T04:16:58;2.83;;;1.10;;
4646;SDS011;2336;47.822;7.564;2022-09-09T04:19:25;0.80;;;0.80;;
4646;SDS011;2336;47.822;7.564;2022-09-09T04:21:52;1.90;;;1.13;;
4646;SDS011;2336;47.822;7.564;2022-09-09T04:24:18;1.60;;;1.30;;
4646;SDS011;2336;47.822;7.564;2022-09-09T04:26:46;2.40;;;1.43;;
4646;SDS011;2336;47.822;7.564;2022-09-09T04:29:14;1.40;;;1.30;;
4646;SDS011;2336;47.822;7.564;2022-09-09T04:31:41;2.40;;;1.00;;
4646;SDS011;2336;47.822;7.564;2022-09-09T04:34:08;2.33;;;1.30;;
4646;SDS011;2336;47.822;7.564;2022-09-09T04:36:35;1.07;;;1.07;;
4646;SDS011;2336;47.822;7.564;2022-09-09T04:39:04;2.43;;;1.20;;
4646;SDS011;2336;47.822;7.564;2022-09-09T04:41:30;1.70;;;0.87;;
4646;SDS011;2336;47.822;7.564;2022-09-09T04:43:57;6.40;;;1.00;;
4646;SDS011;2336;47.822;7.564;2022-09-09T04:46:26;1.37;;;0.97;;
4646;SDS011;2336;47.822;7.564;2022-09-09T04:48:53;2.23;;;1.17;;
4646;SDS011;2336;47.822;7.564;2022-09-09T04:51:19;1.60;;;1.10;;
4646;SDS011;2336;47.822;7.564;2022-09-09T04:53:46;1.23;;;1.00;;
4646;SDS011;2336;47.822;7.564;2022-09-09T04:56:15;1.30;;;1.30;;
4646;SDS011;2336;47.822;7.564;2022-09-09T04:58:43;2.00;;;0.80;;
4646;SDS011;2336;47.822;7.564;2022-09-09T05:01:11;1.20;;;1.10;;
4646;SDS011;2336;47.822;7.564;2022-09-09T05:03:40;6.37;;;1.30;;
4646;SDS011;2336;47.822;7.564;2022-09-09T05:06:07;1.23;;;0.80;;
4646;SDS011;2336;47.822;7.564;2022-09-09T05:08:36;1.70;;;1.00;;
4646;SDS011;2336;47.822;7.564;2022-09-09T05:11:03;2.47;;;0.90;;
4646;SDS011;2336;47.822;7.564;2022-09-09T05:13:30;1.20;;;1.10;;
4646;SDS011;2336;47.822;7.564;2022-09-09T05:15:57;1.00;;;1.00;;
4646;SDS011;2336;47.822;7.564;2022-09-09T05:18:24;3.33;;;1.10;;
4646;SDS011;2336;47.822;7.564;2022-09-09T05:20:52;1.53;;;1.00;;
4646;SDS011;2336;47.822;7.564;2022-09-09T05:23:24;1.80;;;1.00;;
4646;SDS011;2336;47.822;7.564;2022-09-09T05:25:55;2.10;;;1.10;;
4646;SDS011;2336;47.822;7.564;2022-09-09T05:28:23;1.00;;;0.90;;
4646;SDS011;2336;47.822;7.564;2022-09-09T05:30:54;1.17;;;1.07;;
4646;SDS011;2336;47.822;7.564;2022-09-09T05:33:25;2.17;;;1.10;;
4646;SDS011;2336;47.822;7.564;2022-09-09T05:36:00;3.03;;;1.13;;
4646;SDS011;2336;47.822;7.564;2022-09-09T05:38:29;1.27;;;1.10;;
4646;SDS011;2336;47.822;7.564;2022-09-09T05:40:57;1.30;;;0.83;;
4646;SDS011;2336;47.822;7.564;2022-09-09T05:43:25;1.10;;;1.00;;
4646;SDS011;2336;47.822;7.564;2022-09-09T05:45:59;1.77;;;1.00;;
4646;SDS011;2336;47.822;7.564;2022-09-09T05:48:30;1.10;;;1.00;;
4646;SDS011;2336;47.822;7.564;2022-09-09T05:50:59;1.80;;;0.90;;
4646;SDS011;2336;47.822;7.564;2022-09-09T05:53:27;2.67;;;1.20;;
4646;SDS011;2336;47.822;7.564;2022-09-09T05:56:00;3.07;;;1.33;;
4646;SDS011;2336;47.822;7.564;2022-09-09T05:58:29;6.00;;;1.20;;
4646;SDS011;2336;47.822;7.564;2022-09-09T06:01:03;1.70;;;0.93;;
4646;SDS011;2336;47.822;7.564;2022-09-09T06:03:31;2.50;;;1.00;;
4646;SDS011;2336;47.822;7.564;2022-09-09T06:06:01;1.33;;;1.10;;
4646;SDS011;2336;47.822;7.564;2022-09-09T06:08:30;2.07;;;1.30;;
4646;SDS011;2336;47.822;7.564;2022-09-09T06:11:00;2.20;;;1.27;;
4646;SDS011;2336;47.822;7.564;2022-09-09T06:13:28;2.23;;;1.20;;
4646;SDS011;2336;47.822;7.564;2022-09-09T06:15:56;1.20;;;1.10;;
4646;SDS011;2336;47.822;7.564;2022-09-09T06:18:23;1.53;;;1.40;;
4646;SDS011;2336;47.822;7.564;2022-09-09T06:20:54;3.03;;;1.10;;
4646;SDS011;2336;47.822;7.564;2022-09-09T06:23:23;2.87;;;1.17;;
4646;SDS011;2336;47.822;7.564;2022-09-09T06:25:50;3.10;;;1.23;;
4646;SDS011;2336;47.822;7.564;2022-09-09T06:28:17;2.90;;;1.60;;
4646;SDS011;2336;47.822;7.564;2022-09-09T06:30:44;6.63;;;1.10;;
4646;SDS011;2336;47.822;7.564;2022-09-09T06:33:10;2.80;;;1.20;;
4646;SDS011;2336;47.822;7.564;2022-09-09T06:35:37;4.80;;;1.07;;
4646;SDS011;2336;47.822;7.564;2022-09-09T06:38:04;1.40;;;1.30;;
4646;SDS011;2336;47.822;7.564;2022-09-09T06:40:32;2.70;;;1.13;;
4646;SDS011;2336;47.822;7.564;2022-09-09T06:42:59;1.80;;;1.00;;
4646;SDS011;2336;47.822;7.564;2022-09-09T06:45:26;3.10;;;1.57;;
4646;SDS011;2336;47.822;7.564;2022-09-09T06:47:54;1.60;;;1.07;;
4646;SDS011;2336;47.822;7.564;2022-09-09T06:50:21;2.90;;;1.10;;
4646;SDS011;2336;47.822;7.564;2022-09-09T06:52:48;4.80;;;1.53;;
4646;SDS011;2336;47.822;7.564;2022-09-09T06:55:14;3.13;;;1.20;;
4646;SDS011;2336;47.822;7.564;2022-09-09T06:57:43;2.93;;;1.13;;
4646;SDS011;2336;47.822;7.564;2022-09-09T07:00:11;2.23;;;1.30;;
4646;SDS011;2336;47.822;7.564;2022-09-09T07:02:38;13.33;;;11.03;;
4646;SDS011;2336;47.822;7.564;2022-09-09T07:05:06;43.20;;;31.27;;
4646;SDS011;2336;47.822;7.564;2022-09-09T07:07:34;43.20;;;32.33;;
4646;SDS011;2336;47.822;7.564;2022-09-09T07:10:01;21.17;;;16.40;;
4646;SDS011;2336;47.822;7.564;2022-09-09T07:12:29;11.90;;;7.20;;
4646;SDS011;2336;47.822;7.564;2022-09-09T07:14:57;6.63;;;4.33;;
4646;SDS011;2336;47.822;7.564;2022-09-09T07:17:25;18.93;;;15.90;;
4646;SDS011;2336;47.822;7.564;2022-09-09T07:19:53;14.80;;;12.97;;
4646;SDS011;2336;47.822;7.564;2022-09-09T07:22:19;14.50;;;12.27;;
4646;SDS011;2336;47.822;7.564;2022-09-09T07:24:47;9.53;;;8.17;;
4646;SDS011;2336;47.822;7.564;2022-09-09T07:27:14;5.80;;;5.30;;
4646;SDS011;2336;47.822;7.564;2022-09-09T07:29:41;3.60;;;2.50;;
4646;SDS011;2336;47.822;7.564;2022-09-09T07:32:09;1.97;;;1.50;;
4646;SDS011;2336;47.822;7.564;2022-09-09T07:34:36;1.33;;;1.10;;
4646;SDS011;2336;47.822;7.564;2022-09-09T07:37:02;1.80;;;1.13;;
4646;SDS011;2336;47.822;7.564;2022-09-09T07:39:29;3.53;;;1.53;;
4646;SDS011;2336;47.822;7.564;2022-09-09T07:41:56;4.93;;;1.00;;
4646;SDS011;2336;47.822;7.564;2022-09-09T07:44:24;2.57;;;1.30;;
4646;SDS011;2336;47.822;7.564;2022-09-09T07:46:51;3.87;;;1.23;;
4646;SDS011;2336;47.822;7.564;2022-09-09T07:49:20;2.87;;;1.00;;
4646;SDS011;2336;47.822;7.564;2022-09-09T07:51:47;2.20;;;1.27;;
4646;SDS011;2336;47.822;7.564;2022-09-09T07:54:15;2.20;;;0.90;;
4646;SDS011;2336;47.822;7.564;2022-09-09T07:56:45;2.50;;;0.90;;
4646;SDS011;2336;47.822;7.564;2022-09-09T07:59:12;8.07;;;1.00;;
4646;SDS011;2336;47.822;7.564;2022-09-09T08:01:40;3.73;;;1.00;;
4646;SDS011;2336;47.822;7.564;2022-09-09T08:04:09;1.90;;;1.03;;
4646;SDS011;2336;47.822;7.564;2022-09-09T08:06:42;7.50;;;1.40;;
4646;SDS011;2336;47.822;7.564;2022-09-09T08:09:11;4.30;;;1.60;;
4646;SDS011;2336;47.822;7.564;2022-09-09T08:11:38;3.73;;;1.10;;
4646;SDS011;2336;47.822;7.564;2022-09-09T08:14:06;1.90;;;1.10;;
4646;SDS011;2336;47.822;7.564;2022-09-09T08:16:35;3.00;;;1.17;;
4646;SDS011;2336;47.822;7.564;2022-09-09T08:19:03;1.97;;;0.90;;
4646;SDS011;2336;47.822;7.564;2022-09-09T08:21:32;2.70;;;1.23;;
4646;SDS011;2336;47.822;7.564;2022-09-09T08:24:03;1.40;;;1.00;;
4646;SDS011;2336;47.822;7.564;2022-09-09T08:26:31;1.17;;;1.10;;
4646;SDS011;2336;47.822;7.564;2022-09-09T08:28:59;1.00;;;0.80;;
4646;SDS011;2336;47.822;7.564;2022-09-09T08:31:28;2.10;;;0.90;;
4646;SDS011;2336;47.822;7.564;2022-09-09T08:33:56;1.43;;;1.00;;
4646;SDS011;2336;47.822;7.564;2022-09-09T08:36:26;1.93;;;0.70;;
4646;SDS011;2336;47.822;7.564;2022-09-09T08:38:55;4.60;;;1.20;;
4646;SDS011;2336;47.822;7.564;2022-09-09T08:44:31;8.13;;;0.90;;
4646;SDS011;2336;47.822;7.564;2022-09-09T08:47:08;2.00;;;0.87;;
4646;SDS011;2336;47.822;7.564;2022-09-09T08:49:50;2.10;;;0.70;;
4646;SDS011;2336;47.822;7.564;2022-09-09T08:52:27;1.27;;;0.70;;
4646;SDS011;2336;47.822;7.564;2022-09-09T08:54:55;3.40;;;1.20;;
4646;SDS011;2336;47.822;7.564;2022-09-09T08:57:28;1.40;;;1.00;;
4646;SDS011;2336;47.822;7.564;2022-09-09T08:59:57;2.60;;;1.23;;
4646;SDS011;2336;47.822;7.564;2022-09-09T09:02:25;2.00;;;1.07;;
4646;SDS011;2336;47.822;7.564;2022-09-09T09:05:06;4.17;;;1.00;;
4646;SDS011;2336;47.822;7.564;2022-09-09T09:07:45;2.50;;;1.00;;
4646;SDS011;2336;47.822;7.564;2022-09-09T09:10:24;2.97;;;1.00;;
4646;SDS011;2336;47.822;7.564;2022-09-09T09:13:07;1.17;;;1.07;;
4646;SDS011;2336;47.822;7.564;2022-09-09T09:15:40;2.30;;;1.07;;
4646;SDS011;2336;47.822;7.564;2022-09-09T09:18:10;2.70;;;1.17;;
4646;SDS011;2336;47.822;7.564;2022-09-09T09:20:40;0.80;;;0.80;;
4646;SDS011;2336;47.822;7.564;2022-09-09T09:23:13;0.87;;;0.87;;
4646;SDS011;2336;47.822;7.564;2022-09-09T09:25:45;2.77;;;0.80;;
4646;SDS011;2336;47.822;7.564;2022-09-09T09:28:13;2.10;;;1.20;;
4646;SDS011;2336;47.822;7.564;2022-09-09T09:30:46;2.23;;;1.10;;
4646;SDS011;2336;47.822;7.564;2022-09-09T09:33:19;1.43;;;0.97;;
4646;SDS011;2336;47.822;7.564;2022-09-09T09:35:48;9.20;;;1.20;;
4646;SDS011;2336;47.822;7.564;2022-09-09T09:38:19;3.70;;;1.00;;
4646;SDS011;2336;47.822;7.564;2022-09-09T09:40:48;3.70;;;1.47;;
4646;SDS011;2336;47.822;7.564;2022-09-09T09:43:18;3.90;;;1.30;;
4646;SDS011;2336;47.822;7.564;2022-09-09T09:45:51;2.30;;;1.00;;
4646;SDS011;2336;47.822;7.564;2022-09-09T09:48:17;2.27;;;1.23;;
4646;SDS011;2336;47.822;7.564;2022-09-09T09:50:48;2.90;;;0.90;;
4646;SDS011;2336;47.822;7.564;2022-09-09T09:53:18;4.90;;;0.90;;
4646;SDS011;2336;47.822;7.564;2022-09-09T09:55:50;3.07;;;0.90;;
4646;SDS011;2336;47.822;7.564;2022-09-09T09:58:20;4.20;;;0.97;;
4646;SDS011;2336;47.822;7.564;2022-09-09T10:00:47;1.73;;;0.90;;
4646;SDS011;2336;47.822;7.564;2022-09-09T10:03:21;12.60;;;1.07;;
4646;SDS011;2336;47.822;7.564;2022-09-09T10:05:50;3.43;;;0.90;;
4646;SDS011;2336;47.822;7.564;2022-09-09T10:08:17;1.67;;;0.93;;
4646;SDS011;2336;47.822;7.564;2022-09-09T10:13:53;2.67;;;1.40;;
4646;SDS011;2336;47.822;7.564;2022-09-09T10:16:33;3.63;;;1.60;;
4646;SDS011;2336;47.822;7.564;2022-09-09T10:19:12;1.90;;;0.83;;
4646;SDS011;2336;47.822;7.564;2022-09-09T10:21:54;2.83;;;1.00;;
4646;SDS011;2336;47.822;7.564;2022-09-09T10:27:52;1.73;;;0.70;;
4646;SDS011;2336;47.822;7.564;2022-09-09T10:30:33;1.87;;;1.07;;
4646;SDS011;2336;47.822;7.564;2022-09-09T10:33:13;7.03;;;1.30;;
4646;SDS011;2336;47.822;7.564;2022-09-09T10:35:50;6.37;;;1.20;;
4646;SDS011;2336;47.822;7.564;2022-09-09T10:38:24;2.23;;;0.90;;
4646;SDS011;2336;47.822;7.564;2022-09-09T10:41:00;2.50;;;1.00;;
4646;SDS011;2336;47.822;7.564;2022-09-09T10:43:46;3.27;;;1.20;;
4646;SDS011;2336;47.822;7.564;2022-09-09T10:46:26;3.07;;;1.23;;
4646;SDS011;2336;47.822;7.564;2022-09-09T10:49:05;4.17;;;1.20;;
4646;SDS011;2336;47.822;7.564;2022-09-09T10:51:45;2.33;;;0.97;;
4646;SDS011;2336;47.822;7.564;2022-09-09T10:54:26;3.77;;;0.70;;
4646;SDS011;2336;47.822;7.564;2022-09-09T10:57:00;1.60;;;0.90;;
4646;SDS011;2336;47.822;7.564;2022-09-09T10:59:32;1.37;;;0.87;;
4646;SDS011;2336;47.822;7.564;2022-09-09T11:02:03;3.03;;;1.00;;
4646;SDS011;2336;47.822;7.564;2022-09-09T11:04:41;2.80;;;0.73;;
4646;SDS011;2336;47.822;7.564;2022-09-09T11:07:14;3.53;;;0.77;;
4646;SDS011;2336;47.822;7.564;2022-09-09T11:09:49;1.70;;;0.77;;
4646;SDS011;2336;47.822;7.564;2022-09-09T11:12:24;1.70;;;0.80;;
4646;SDS011;2336;47.822;7.564;2022-09-09T11:14:54;1.27;;;0.87;;
4646;SDS011;2336;47.822;7.564;2022-09-09T11:17:29;0.80;;;0.77;;
4646;SDS011;2336;47.822;7.564;2022-09-09T11:20:02;2.73;;;0.73;;
4646;SDS011;2336;47.822;7.564;2022-09-09T11:22:34;2.10;;;1.10;;
4646;SDS011;2336;47.822;7.564;2022-09-09T11:25:08;2.40;;;0.97;;
4646;SDS011;2336;47.822;7.564;2022-09-09T11:27:43;3.27;;;1.00;;
4646;SDS011;2336;47.822;7.564;2022-09-09T11:30:21;0.90;;;0.90;;
4646;SDS011;2336;47.822;7.564;2022-09-09T11:32:57;2.90;;;1.00;;
4646;SDS011;2336;47.822;7.564;2022-09-09T11:35:35;2.53;;;0.90;;
4646;SDS011;2336;47.822;7.564;2022-09-09T11:38:18;2.33;;;0.87;;
4646;SDS011;2336;47.822;7.564;2022-09-09T11:40:47;2.40;;;0.80;;
4646;SDS011;2336;47.822;7.564;2022-09-09T11:43:24;2.33;;;1.20;;
4646;SDS011;2336;47.822;7.564;2022-09-09T11:45:54;1.23;;;0.70;;
4646;SDS011;2336;47.822;7.564;2022-09-09T11:48:25;1.43;;;0.80;;
4646;SDS011;2336;47.822;7.564;2022-09-09T11:50:59;0.80;;;0.80;;
4646;SDS011;2336;47.822;7.564;2022-09-09T11:53:29;3.33;;;1.00;;
4646;SDS011;2336;47.822;7.564;2022-09-09T11:56:03;3.40;;;1.10;;
4646;SDS011;2336;47.822;7.564;2022-09-09T11:58:39;2.60;;;0.90;;
4646;SDS011;2336;47.822;7.564;2022-09-09T12:01:26;1.83;;;0.90;;
4646;SDS011;2336;47.822;7.564;2022-09-09T12:04:00;1.57;;;0.90;;
4646;SDS011;2336;47.822;7.564;2022-09-09T12:06:53;2.63;;;0.80;;
4646;SDS011;2336;47.822;7.564;2022-09-09T12:09:26;3.20;;;0.60;;
4646;SDS011;2336;47.822;7.564;2022-09-09T12:12:06;2.10;;;1.03;;
4646;SDS011;2336;47.822;7.564;2022-09-09T12:14:54;2.93;;;0.90;;
4646;SDS011;2336;47.822;7.564;2022-09-09T12:17:26;1.80;;;0.90;;
4646;SDS011;2336;47.822;7.564;2022-09-09T12:20:03;2.20;;;1.07;;
4646;SDS011;2336;47.822;7.564;2022-09-09T12:22:35;9.47;;;1.10;;
4646;SDS011;2336;47.822;7.564;2022-09-09T12:25:14;1.93;;;0.93;;
4646;SDS011;2336;47.822;7.564;2022-09-09T12:27:49;0.80;;;0.80;;
4646;SDS011;2336;47.822;7.564;2022-09-09T12:30:27;1.23;;;0.83;;
4646;SDS011;2336;47.822;7.564;2022-09-09T12:33:01;1.00;;;0.70;;
4646;SDS011;2336;47.822;7.564;2022-09-09T12:35:28;1.37;;;0.77;;
4646;SDS011;2336;47.822;7.564;2022-09-09T12:37:57;2.80;;;0.80;;
4646;SDS011;2336;47.822;7.564;2022-09-09T12:40:28;2.53;;;0.80;;
4646;SDS011;2336;47.822;7.564;2022-09-09T12:42:57;1.00;;;0.90;;
4646;SDS011;2336;47.822;7.564;2022-09-09T12:45:26;7.40;;;1.20;;
4646;SDS011;2336;47.822;7.564;2022-09-09T12:47:56;2.13;;;0.80;;
4646;SDS011;2336;47.822;7.564;2022-09-09T12:50:27;1.43;;;0.87;;
4646;SDS011;2336;47.822;7.564;2022-09-09T12:52:56;15.53;;;1.27;;
4646;SDS011;2336;47.822;7.564;2022-09-09T12:55:27;19.30;;;3.80;;
4646;SDS011;2336;47.822;7.564;2022-09-09T12:57:58;2.40;;;1.00;;
4646;SDS011;2336;47.822;7.564;2022-09-09T13:00:29;2.97;;;1.07;;
4646;SDS011;2336;47.822;7.564;2022-09-09T13:02:56;3.37;;;1.17;;
4646;SDS011;2336;47.822;7.564;2022-09-09T13:05:27;1.43;;;0.90;;
4646;SDS011;2336;47.822;7.564;2022-09-09T13:08:00;1.37;;;1.00;;
4646;SDS011;2336;47.822;7.564;2022-09-09T13:10:30;1.23;;;0.83;;
4646;SDS011;2336;47.822;7.564;2022-09-09T13:13:00;1.10;;;1.00;;
4646;SDS011;2336;47.822;7.564;2022-09-09T13:15:28;2.37;;;1.50;;
4646;SDS011;2336;47.822;7.564;2022-09-09T13:17:56;4.47;;;1.70;;
4646;SDS011;2336;47.822;7.564;2022-09-09T13:20:26;3.00;;;1.17;;
4646;SDS011;2336;47.822;7.564;2022-09-09T13:22:54;8.57;;;2.00;;
4646;SDS011;2336;47.822;7.564;2022-09-09T13:25:23;3.03;;;1.40;;
4646;SDS011;2336;47.822;7.564;2022-09-09T13:27:53;3.40;;;1.70;;
4646;SDS011;2336;47.822;7.564;2022-09-09T13:30:23;3.80;;;1.60;;
4646;SDS011;2336;47.822;7.564;2022-09-09T13:33:02;1.67;;;1.17;;
4646;SDS011;2336;47.822;7.564;2022-09-09T13:35:30;1.47;;;0.80;;
4646;SDS011;2336;47.822;7.564;2022-09-09T13:37:58;1.73;;;0.80;;
4646;SDS011;2336;47.822;7.564;2022-09-09T13:40:32;1.37;;;0.70;;
4646;SDS011;2336;47.822;7.564;2022-09-09T13:43:00;3.03;;;1.20;;
4646;SDS011;2336;47.822;7.564;2022-09-09T13:45:28;2.30;;;0.87;;
4646;SDS011;2336;47.822;7.564;2022-09-09T13:47:55;1.37;;;0.80;;
4646;SDS011;2336;47.822;7.564;2022-09-09T13:50:24;2.70;;;1.20;;
4646;SDS011;2336;47.822;7.564;2022-09-09T13:52:52;4.67;;;0.70;;
4646;SDS011;2336;47.822;7.564;2022-09-09T13:55:21;2.87;;;0.90;;
4646;SDS011;2336;47.822;7.564;2022-09-09T13:57:50;3.67;;;0.93;;
4646;SDS011;2336;47.822;7.564;2022-09-09T14:00:19;1.03;;;0.70;;
4646;SDS011;2336;47.822;7.564;2022-09-09T14:02:46;0.77;;;0.77;;
4646;SDS011;2336;47.822;7.564;2022-09-09T14:05:13;1.37;;;0.70;;
4646;SDS011;2336;47.822;7.564;2022-09-09T14:07:41;0.60;;;0.60;;
4646;SDS011;2336;47.822;7.564;2022-09-09T14:10:08;1.43;;;0.77;;
4646;SDS011;2336;47.822;7.564;2022-09-09T14:12:36;0.70;;;0.60;;
4646;SDS011;2336;47.822;7.564;2022-09-09T14:15:03;2.10;;;1.00;;
4646;SDS011;2336;47.822;7.564;2022-09-09T14:17:32;1.83;;;0.87;;
4646;SDS011;2336;47.822;7.564;2022-09-09T14:20:01;0.90;;;0.77;;
4646;SDS011;2336;47.822;7.564;2022-09-09T14:22:28;2.00;;;0.60;;
4646;SDS011;2336;47.822;7.564;2022-09-09T14:24:55;0.77;;;0.77;;
4646;SDS011;2336;47.822;7.564;2022-09-09T14:27:22;1.70;;;0.60;;
4646;SDS011;2336;47.822;7.564;2022-09-09T14:29:50;1.43;;;0.90;;
4646;SDS011;2336;47.822;7.564;2022-09-09T14:32:17;2.00;;;0.83;;
4646;SDS011;2336;47.822;7.564;2022-09-09T14:34:45;2.90;;;0.80;;
4646;SDS011;2336;47.822;7.564;2022-09-09T14:37:14;2.10;;;0.60;;
4646;SDS011;2336;47.822;7.564;2022-09-09T14:39:41;1.20;;;0.67;;
4646;SDS011;2336;47.822;7.564;2022-09-09T14:42:09;2.27;;;0.70;;
4646;SDS011;2336;47.822;7.564;2022-09-09T14:44:36;2.47;;;0.90;;
4646;SDS011;2336;47.822;7.564;2022-09-09T14:47:03;1.93;;;0.80;;
4646;SDS011;2336;47.822;7.564;2022-09-09T14:49:30;1.50;;;0.80;;
4646;SDS011;2336;47.822;7.564;2022-09-09T14:51:58;0.67;;;0.67;;
4646;SDS011;2336;47.822;7.564;2022-09-09T14:54:25;0.70;;;0.70;;
4646;SDS011;2336;47.822;7.564;2022-09-09T14:56:51;2.07;;;0.83;;
4646;SDS011;2336;47.822;7.564;2022-09-09T14:59:18;0.63;;;0.63;;
4646;SDS011;2336;47.822;7.564;2022-09-09T15:01:45;1.37;;;1.10;;
4646;SDS011;2336;47.822;7.564;2022-09-09T15:04:12;0.97;;;0.70;;
4646;SDS011;2336;47.822;7.564;2022-09-09T15:06:40;1.50;;;0.90;;
4646;SDS011;2336;47.822;7.564;2022-09-09T15:09:09;0.90;;;0.60;;
4646;SDS011;2336;47.822;7.564;2022-09-09T15:11:36;2.00;;;0.67;;
4646;SDS011;2336;47.822;7.564;2022-09-09T15:14:04;0.90;;;0.77;;
4646;SDS011;2336;47.822;7.564;2022-09-09T15:16:32;1.00;;;0.73;;
4646;SDS011;2336;47.822;7.564;2022-09-09T15:18:59;3.13;;;0.70;;
4646;SDS011;2336;47.822;7.564;2022-09-09T15:21:27;3.20;;;1.00;;
4646;SDS011;2336;47.822;7.564;2022-09-09T15:23:56;0.80;;;0.80;;
4646;SDS011;2336;47.822;7.564;2022-09-09T15:26:25;5.03;;;0.90;;
4646;SDS011;2336;47.822;7.564;2022-09-09T15:28:53;1.83;;;0.80;;
4646;SDS011;2336;47.822;7.564;2022-09-09T15:31:20;1.13;;;1.03;;
4646;SDS011;2336;47.822;7.564;2022-09-09T15:33:48;1.73;;;0.90;;
4646;SDS011;2336;47.822;7.564;2022-09-09T15:36:16;1.17;;;1.00;;
4646;SDS011;2336;47.822;7.564;2022-09-09T15:38:44;0.83;;;0.80;;
4646;SDS011;2336;47.822;7.564;2022-09-09T15:41:11;2.93;;;0.90;;
4646;SDS011;2336;47.822;7.564;2022-09-09T15:43:42;1.80;;;1.13;;